Rechercher aéroport 
image banner adimage banner adimage banner ad
image banner ad

39PS - Stat Medevac Harborcreek

Situé à Harborcreek, United States

ICAO - 39PS, IATA -

Données fournies par Airmate  

Information générale

Coordonnées: N42°10'19" W79°56'34"
Élévation : 760 feet MSL.
Variation magnétique : -10° East
Voir autres Aéroports à Pennsylvania

Données opérationnelles

Special qualification required
Heure actuelle UTC:
Heure actuelle locale:
Météo à : KERI - Erie Intl/Tom Ridge Field ( 21 km )
METAR: KERI 150651Z AUTO 00000KT 10SM OVC055 17/13 A2987 RMK AO2 SLP111 T01720133
TAF: KERI 150535Z 1506/1606 VRB03KT P6SM BKN035 FM151700 30013KT P6SM FEW250 FM152300 33015G25KT P6SM FEW250 FM160500 01010KT P6SM FEW250
Voir NOTAMs / SUP AIP / TFR affectant cet aéroport [VIEW]
Fréquences de communication: [VIEW]

Pistes:

Coordonnées de l'aéroport

Adresse: Harborcreek United States

Vue satellite de 39PS